createdAt,value
2022-10-30T00:00:04.281Z,95.62
2022-10-30T00:01:04.184Z,95.62
2022-10-30T00:02:04.233Z,95.51
2022-10-30T00:03:04.401Z,95.62
2022-10-30T00:04:04.248Z,95.62
2022-10-30T00:05:04.134Z,95.62
2022-10-30T00:06:04.164Z,95.62
2022-10-30T00:07:04.121Z,95.72
2022-10-30T00:08:04.125Z,95.72
2022-10-30T00:09:04.092Z,95.86
2022-10-30T00:10:04.150Z,95.86
2022-10-30T00:11:04.153Z,95.86
2022-10-30T00:12:04.045Z,95.97
2022-10-30T00:13:04.023Z,96.07
2022-10-30T00:14:06.046Z,96.07
2022-10-30T00:15:04.088Z,96.17
2022-10-30T00:16:03.986Z,96.17
2022-10-30T00:17:03.979Z,96.17
2022-10-30T00:18:04.004Z,96.27
2022-10-30T00:19:03.950Z,96.27
2022-10-30T00:20:04.965Z,96.22
2022-10-30T00:21:04.953Z,96.31
2022-10-30T00:22:34.220Z,96.52
2022-10-30T00:23:34.239Z,96.52
2022-10-30T00:24:34.278Z,96.62
2022-10-30T00:25:34.231Z,96.72
2022-10-30T00:26:34.257Z,96.62
2022-10-30T00:27:34.161Z,96.62
2022-10-30T00:28:34.200Z,96.72
2022-10-30T00:29:34.139Z,96.62
2022-10-30T00:30:34.123Z,96.62
2022-10-30T00:31:34.189Z,96.62
2022-10-30T00:32:34.093Z,96.72
2022-10-30T00:33:34.132Z,96.72
2022-10-30T00:34:34.081Z,96.72
2022-10-30T00:35:34.217Z,96.62
2022-10-30T00:36:34.122Z,96.62
2022-10-30T00:37:34.129Z,96.72
2022-10-30T00:38:35.069Z,96.62
2022-10-30T00:39:34.020Z,96.72
2022-10-30T00:40:34.044Z,96.62
2022-10-30T00:41:34.054Z,96.62
2022-10-30T00:42:34.058Z,96.62
2022-10-30T00:43:33.972Z,96.62
2022-10-30T00:44:37.185Z,96.52
2022-10-30T00:45:33.974Z,96.62
2022-10-30T00:46:33.996Z,96.72
2022-10-30T00:47:34.001Z,96.72
2022-10-30T00:48:33.895Z,96.77
2022-10-30T00:49:33.896Z,96.87
2022-10-30T00:50:36.042Z,96.97
2022-10-30T00:51:36.653Z,97.07
2022-10-30T00:52:33.924Z,97.07
2022-10-30T00:53:33.864Z,97.07
2022-10-30T00:54:33.836Z,97.07
2022-10-30T00:55:33.814Z,97.07
2022-10-30T00:56:33.844Z,96.97
2022-10-30T00:57:33.856Z,96.97
2022-10-30T00:58:33.772Z,96.97
2022-10-30T00:59:33.775Z,96.97
2022-10-30T01:00:33.753Z,96.97
2022-10-30T01:01:33.876Z,96.97
2022-10-30T01:02:33.864Z,96.97
2022-10-30T01:03:33.695Z,96.97
2022-10-30T01:04:33.701Z,96.97
2022-10-30T01:05:33.686Z,96.97
2022-10-30T01:06:33.716Z,96.97
2022-10-30T01:07:33.636Z,96.97
2022-10-30T01:08:33.706Z,96.97
2022-10-30T01:09:33.638Z,96.92
2022-10-30T01:10:34.290Z,96.92
2022-10-30T01:11:33.678Z,96.92
2022-10-30T01:12:33.658Z,96.81
2022-10-30T01:13:33.667Z,96.81
2022-10-30T01:14:33.567Z,96.81
2022-10-30T01:15:33.608Z,96.92
2022-10-30T01:16:33.589Z,96.81
2022-10-30T01:17:33.599Z,96.92
2022-10-30T01:18:33.601Z,96.96
2022-10-30T01:19:33.499Z,96.96
2022-10-30T01:20:34.572Z,97.06
2022-10-30T01:21:33.518Z,97.06
2022-10-30T01:22:33.526Z,97.06
2022-10-30T01:23:33.529Z,97.16
2022-10-30T01:24:33.429Z,97.16
2022-10-30T01:25:34.533Z,97.16
2022-10-30T01:26:33.398Z,97.27
2022-10-30T01:27:33.450Z,97.27
2022-10-30T01:28:33.459Z,97.27
2022-10-30T01:29:33.361Z,97.37
2022-10-30T01:30:33.403Z,97.37
2022-10-30T01:31:33.338Z,97.47
2022-10-30T01:32:56.729Z,97.47
2022-10-30T01:33:33.294Z,97.62
2022-10-30T01:34:33.354Z,97.62
2022-10-30T01:35:33.293Z,97.62
2022-10-30T01:36:33.277Z,97.62
2022-10-30T01:37:33.240Z,97.72
2022-10-30T01:39:43.450Z,97.72
2022-10-30T01:40:43.502Z,97.72
2022-10-30T01:41:43.430Z,97.72
2022-10-30T01:42:43.433Z,97.72
2022-10-30T01:44:04.492Z,97.82
2022-10-30T01:44:43.389Z,97.78
2022-10-30T01:45:43.391Z,97.88
2022-10-30T01:46:43.360Z,97.88
2022-10-30T01:47:43.432Z,97.88
2022-10-30T01:48:43.431Z,97.88
2022-10-30T01:49:43.331Z,97.88
2022-10-30T01:50:43.342Z,97.88
2022-10-30T01:51:43.310Z,97.88
2022-10-30T01:52:43.351Z,97.98
2022-10-30T01:53:43.365Z,97.88
2022-10-30T01:54:43.364Z,97.88
2022-10-30T01:55:43.331Z,97.88
2022-10-30T01:56:43.282Z,97.88
2022-10-30T01:57:43.288Z,97.78
2022-10-30T01:58:43.285Z,97.78
2022-10-30T01:59:43.295Z,97.78
2022-10-30T02:00:43.236Z,97.78
2022-10-30T02:01:43.375Z,97.67
2022-10-30T02:02:43.285Z,97.67
2022-10-30T02:03:43.171Z,97.67
2022-10-30T02:04:43.234Z,97.67
2022-10-30T02:05:43.175Z,97.67
2022-10-30T02:06:43.156Z,97.67
2022-10-30T02:07:43.103Z,97.67
2022-10-30T02:08:43.086Z,97.67
2022-10-30T02:09:44.087Z,97.57
2022-10-30T02:10:43.098Z,97.57
2022-10-30T02:11:43.057Z,97.57
2022-10-30T02:12:43.069Z,97.57
2022-10-30T02:13:43.096Z,97.62
2022-10-30T02:14:44.036Z,97.62
2022-10-30T02:15:43.030Z,97.62
2022-10-30T02:16:43.035Z,97.62
2022-10-30T02:17:42.977Z,97.62
2022-10-30T02:18:43.109Z,97.62
2022-10-30T02:19:43.026Z,97.72
2022-10-30T02:20:42.967Z,97.72
2022-10-30T02:21:42.970Z,97.72
2022-10-30T02:22:43.001Z,97.72
2022-10-30T02:23:42.947Z,97.72
2022-10-30T02:24:42.958Z,97.72
2022-10-30T02:25:42.912Z,97.72
2022-10-30T02:26:42.870Z,97.82
2022-10-30T02:27:42.903Z,97.82
2022-10-30T02:28:42.917Z,97.82
2022-10-30T02:29:42.888Z,97.92
2022-10-30T02:30:42.940Z,97.92
2022-10-30T02:31:43.829Z,97.92
2022-10-30T02:32:42.809Z,97.92
2022-10-30T02:33:42.846Z,97.92
2022-10-30T02:34:42.771Z,97.92
2022-10-30T02:35:42.869Z,97.92
2022-10-30T02:36:42.849Z,97.92
2022-10-30T02:37:42.764Z,97.92
2022-10-30T02:38:42.758Z,97.92
2022-10-30T02:39:42.773Z,97.92
2022-10-30T02:40:42.792Z,97.82
2022-10-30T02:41:42.771Z,97.82
2022-10-30T02:42:42.675Z,97.82
2022-10-30T02:43:42.647Z,97.82
2022-10-30T02:44:42.710Z,97.82
2022-10-30T02:45:42.737Z,97.82
2022-10-30T02:46:42.711Z,97.92
2022-10-30T02:47:42.609Z,97.92
2022-10-30T02:48:42.587Z,97.92
2022-10-30T02:49:42.624Z,97.92
2022-10-30T02:50:42.666Z,97.92
2022-10-30T02:51:42.632Z,97.92
2022-10-30T02:52:42.542Z,97.92
2022-10-30T02:53:42.646Z,97.92
2022-10-30T02:54:42.521Z,97.92
2022-10-30T02:55:42.514Z,97.92
2022-10-30T02:56:42.563Z,97.97
2022-10-30T02:57:42.588Z,97.87
2022-10-30T02:58:42.497Z,97.97
2022-10-30T02:59:42.482Z,97.97
2022-10-30T03:00:43.452Z,97.97
2022-10-30T03:01:42.543Z,97.97
2022-10-30T03:02:42.491Z,97.97
2022-10-30T03:03:42.419Z,97.97
2022-10-30T03:04:42.383Z,97.97
2022-10-30T03:05:42.390Z,97.97
2022-10-30T03:06:42.366Z,97.97
2022-10-30T03:07:42.371Z,97.97
2022-10-30T03:08:42.356Z,97.97
2022-10-30T03:09:42.315Z,97.97
2022-10-30T03:10:42.337Z,97.97
2022-10-30T03:11:42.299Z,98.07
2022-10-30T03:12:43.377Z,98.07
2022-10-30T03:13:42.258Z,98.07
2022-10-30T03:14:42.247Z,98.18
2022-10-30T03:15:42.302Z,98.18
2022-10-30T03:16:42.327Z,98.18
2022-10-30T03:18:42.202Z,98.27
2022-10-30T03:19:42.229Z,98.27
2022-10-30T03:20:42.188Z,98.18
2022-10-30T03:21:42.179Z,98.18
2022-10-30T03:22:42.154Z,98.27
2022-10-30T03:23:42.244Z,98.27
2022-10-30T03:24:42.130Z,98.27
2022-10-30T03:25:42.111Z,98.27
2022-10-30T03:26:42.129Z,98.27
2022-10-30T03:27:42.167Z,98.27
2022-10-30T03:28:42.191Z,98.18
2022-10-30T03:29:42.048Z,98.18
2022-10-30T03:30:42.111Z,98.18
2022-10-30T03:31:42.152Z,98.18
2022-10-30T03:32:42.113Z,98.18
2022-10-30T03:33:42.021Z,98.18
2022-10-30T03:34:41.990Z,98.22
2022-10-30T03:35:42.033Z,98.11
2022-10-30T03:36:42.084Z,98.11
2022-10-30T03:37:41.996Z,98.02
2022-10-30T03:38:41.946Z,98.02
2022-10-30T03:39:41.961Z,98.02
2022-10-30T03:40:42.983Z,98.02
2022-10-30T03:41:41.934Z,98.02
2022-10-30T03:42:41.892Z,98.02
2022-10-30T03:43:41.894Z,98.11
2022-10-30T03:44:41.881Z,98.11
2022-10-30T03:45:41.853Z,98.11
2022-10-30T03:46:41.862Z,98.22
2022-10-30T03:47:41.914Z,98.22
2022-10-30T03:48:41.903Z,98.27
2022-10-30T03:49:41.829Z,98.27
2022-10-30T04:02:57.998Z,98.63
2022-10-30T04:03:57.673Z,98.63
2022-10-30T04:04:57.682Z,98.63
2022-10-30T04:05:57.563Z,98.63
2022-10-30T04:06:57.574Z,98.63
2022-10-30T04:07:57.545Z,98.52
2022-10-30T04:08:58.541Z,98.57
2022-10-30T04:09:57.524Z,98.57
2022-10-30T04:10:57.617Z,98.57
2022-10-30T04:11:57.519Z,98.57
2022-10-30T04:12:57.719Z,98.52
2022-10-30T04:13:58.488Z,98.52
2022-10-30T04:14:57.453Z,98.52
2022-10-30T04:15:58.408Z,98.57
2022-10-30T04:16:57.495Z,98.57
2022-10-30T04:17:57.688Z,98.57
2022-10-30T04:18:57.414Z,98.57
2022-10-30T04:19:58.406Z,98.57
2022-10-30T04:20:57.484Z,98.68
2022-10-30T04:21:57.395Z,98.68
2022-10-30T04:22:57.390Z,98.68
2022-10-30T04:23:57.340Z,98.68
2022-10-30T04:25:18.404Z,98.63
2022-10-30T04:25:57.317Z,98.63
2022-10-30T04:26:57.303Z,98.63
2022-10-30T04:27:57.567Z,98.63
2022-10-30T04:28:57.276Z,98.63
2022-10-30T04:29:57.352Z,98.63
2022-10-30T04:30:58.271Z,98.63
2022-10-30T04:31:57.292Z,98.73
2022-10-30T04:32:57.556Z,98.68
2022-10-30T04:33:57.277Z,98.58
2022-10-30T04:34:57.287Z,98.48
2022-10-30T04:35:57.296Z,98.38
2022-10-30T04:36:57.192Z,98.38
2022-10-30T04:37:57.248Z,98.38
2022-10-30T04:38:57.198Z,98.27
2022-10-30T04:39:57.227Z,98.18
2022-10-30T04:40:57.218Z,98.18
2022-10-30T04:41:57.117Z,98.07
2022-10-30T04:42:57.465Z,98.07
2022-10-30T04:43:57.138Z,97.97
2022-10-30T04:44:57.067Z,97.97
2022-10-30T04:45:57.079Z,97.87
2022-10-30T04:46:57.158Z,97.77
2022-10-30T04:47:57.538Z,97.77
2022-10-30T04:48:57.086Z,97.77
2022-10-30T04:49:57.069Z,97.66
2022-10-30T04:50:57.102Z,97.66
2022-10-30T04:51:57.090Z,97.66
2022-10-30T04:52:56.980Z,97.66
2022-10-30T04:53:57.005Z,97.71
2022-10-30T04:54:57.001Z,97.71
2022-10-30T04:55:57.037Z,97.61
2022-10-30T04:56:57.044Z,97.61
2022-10-30T04:57:57.274Z,97.61
2022-10-30T04:58:56.880Z,97.61
2022-10-30T04:59:56.941Z,97.61
2022-10-30T05:01:02.028Z,97.55
2022-10-30T05:01:57.977Z,97.45
2022-10-30T05:02:56.891Z,97.55
2022-10-30T05:03:57.901Z,97.55
2022-10-30T05:04:56.871Z,97.60
2022-10-30T05:05:56.905Z,97.70
2022-10-30T05:06:56.883Z,97.70
2022-10-30T05:07:57.254Z,97.70
2022-10-30T05:08:56.761Z,97.80
2022-10-30T05:09:56.809Z,97.80
2022-10-30T05:10:56.813Z,97.90
2022-10-30T05:11:59.172Z,97.90
2022-10-30T05:12:56.773Z,97.90
2022-10-30T05:13:56.697Z,97.90
2022-10-30T05:14:57.764Z,97.90
2022-10-30T05:15:57.764Z,98.00
2022-10-30T05:16:56.679Z,98.00
2022-10-30T05:17:56.857Z,98.05
2022-10-30T05:18:56.634Z,98.15
2022-10-30T05:19:56.661Z,98.05
2022-10-30T05:20:57.713Z,98.05
2022-10-30T05:21:56.685Z,98.15
2022-10-30T05:22:56.625Z,98.15
2022-10-30T05:23:56.566Z,98.15
2022-10-30T05:24:56.557Z,98.15
2022-10-30T05:25:56.555Z,98.25
2022-10-30T05:26:56.538Z,98.25
2022-10-30T05:27:56.893Z,98.25
2022-10-30T05:28:56.523Z,98.36
2022-10-30T05:29:56.546Z,98.36
2022-10-30T05:30:56.485Z,98.36
2022-10-30T05:31:56.468Z,98.36
2022-10-30T05:32:56.644Z,98.36
2022-10-30T05:33:56.465Z,98.36
2022-10-30T05:34:56.482Z,98.40
2022-10-30T05:35:56.468Z,98.40
2022-10-30T05:36:56.537Z,98.40
2022-10-30T05:37:56.423Z,98.40
2022-10-30T05:38:56.403Z,98.40
2022-10-30T05:39:56.380Z,98.40
2022-10-30T05:40:56.422Z,98.40
2022-10-30T05:41:56.409Z,98.40
2022-10-30T05:42:56.942Z,98.50
2022-10-30T05:43:56.333Z,98.50
2022-10-30T05:45:00.802Z,98.50
2022-10-30T05:45:57.357Z,98.50
2022-10-30T05:47:56.607Z,98.55
2022-10-30T05:48:56.348Z,98.55
2022-10-30T05:49:56.232Z,98.55
2022-10-30T05:50:56.230Z,98.55
2022-10-30T05:51:56.216Z,98.65
2022-10-30T05:52:56.295Z,98.65
2022-10-30T05:53:56.228Z,98.65
2022-10-30T05:55:18.220Z,98.65
2022-10-30T05:55:56.212Z,98.65
2022-10-30T05:56:57.251Z,98.65
2022-10-30T05:57:57.574Z,98.65
2022-10-30T05:58:56.117Z,98.75
2022-10-30T05:59:56.117Z,98.75
2022-10-30T06:00:56.089Z,98.75
2022-10-30T06:01:56.091Z,98.75
2022-10-30T06:02:56.621Z,98.86
2022-10-30T06:03:56.160Z,98.86
2022-10-30T06:04:56.044Z,98.86
2022-10-30T06:05:56.044Z,98.86
2022-10-30T06:06:57.108Z,98.86
2022-10-30T06:07:56.089Z,98.75
2022-10-30T06:08:56.014Z,98.65
2022-10-30T06:09:55.998Z,98.55
2022-10-30T06:10:55.971Z,98.55
2022-10-30T06:11:56.013Z,98.55
2022-10-30T06:12:57.454Z,98.55
2022-10-30T06:13:56.031Z,98.55
2022-10-30T06:14:55.927Z,98.45
2022-10-30T06:15:55.941Z,98.45
2022-10-30T06:16:55.885Z,98.45
2022-10-30T06:17:56.123Z,98.35
2022-10-30T06:18:55.868Z,98.35
2022-10-30T06:19:55.854Z,98.45
2022-10-30T06:20:55.859Z,98.55
2022-10-30T06:21:55.875Z,98.55
2022-10-30T06:22:55.940Z,98.55
2022-10-30T06:23:55.883Z,98.55
2022-10-30T06:24:55.786Z,98.55
2022-10-30T06:25:55.793Z,98.55
2022-10-30T06:26:55.755Z,98.55
2022-10-30T06:27:56.109Z,98.55
2022-10-30T06:28:55.815Z,98.45
2022-10-30T06:29:56.753Z,98.45
2022-10-30T06:30:55.728Z,98.45
2022-10-30T06:31:55.704Z,98.45
2022-10-30T06:32:56.152Z,98.45
2022-10-30T06:33:55.746Z,98.40
2022-10-30T06:34:55.762Z,98.40
2022-10-30T06:35:55.665Z,98.40
2022-10-30T06:36:55.725Z,98.40
2022-10-30T06:37:55.717Z,98.50
2022-10-30T06:38:55.689Z,98.56
2022-10-30T06:39:55.688Z,98.46
2022-10-30T06:40:55.597Z,98.31
2022-10-30T06:41:55.606Z,98.11
2022-10-30T06:42:55.906Z,98.11
2022-10-30T06:43:55.627Z,97.96
2022-10-30T06:44:55.638Z,97.86
2022-10-30T06:45:55.676Z,97.65
2022-10-30T06:46:56.575Z,97.45
2022-10-30T06:47:55.781Z,97.45
2022-10-30T06:48:55.551Z,97.24
2022-10-30T06:49:55.568Z,97.14
2022-10-30T06:50:55.557Z,97.04
2022-10-30T06:51:56.556Z,97.08
2022-10-30T06:52:55.449Z,96.98
2022-10-30T06:53:55.488Z,96.98
2022-10-30T06:54:55.401Z,96.98
2022-10-30T06:55:58.814Z,97.08
2022-10-30T06:56:55.420Z,97.08
2022-10-30T06:57:57.933Z,97.14
2022-10-30T06:58:55.411Z,97.14
2022-10-30T06:59:55.423Z,97.04
2022-10-30T07:00:55.466Z,96.94
2022-10-30T07:01:57.479Z,96.94
2022-10-30T07:02:56.791Z,96.84
2022-10-30T07:03:55.305Z,96.84
2022-10-30T07:04:55.289Z,96.84
2022-10-30T07:05:55.264Z,96.84
2022-10-30T07:06:55.253Z,96.88
2022-10-30T07:07:55.330Z,96.88
2022-10-30T07:08:55.245Z,96.98
2022-10-30T07:09:55.292Z,97.08
2022-10-30T07:10:55.301Z,97.14
2022-10-30T07:11:56.903Z,97.14
2022-10-30T07:12:55.456Z,97.14
2022-10-30T07:13:55.175Z,97.14
2022-10-30T07:14:55.243Z,97.24
2022-10-30T07:15:55.134Z,97.24
2022-10-30T07:16:55.124Z,97.14
2022-10-30T07:17:55.263Z,97.14
2022-10-30T07:18:55.496Z,97.14
2022-10-30T07:19:55.146Z,97.24
2022-10-30T07:20:55.054Z,97.34
2022-10-30T07:22:03.577Z,97.34
2022-10-30T07:23:03.738Z,97.34
2022-10-30T07:24:02.542Z,97.34
2022-10-30T07:25:02.511Z,97.30
2022-10-30T07:26:04.168Z,97.20
2022-10-30T07:27:02.487Z,97.20
2022-10-30T07:28:03.825Z,97.09
2022-10-30T07:30:04.319Z,97.09
2022-10-30T07:31:11.816Z,97.09
2022-10-30T07:33:13.703Z,97.05
2022-10-30T07:34:21.168Z,96.95
2022-10-30T07:35:13.638Z,96.84
2022-10-30T07:36:21.143Z,96.80
2022-10-30T07:37:13.635Z,96.70
2022-10-30T07:38:23.287Z,96.70
2022-10-30T07:39:34.688Z,96.60
2022-10-30T07:40:21.079Z,96.50
2022-10-30T07:41:13.570Z,96.50
2022-10-30T07:42:21.066Z,96.30
2022-10-30T07:43:23.232Z,96.30
2022-10-30T07:45:23.766Z,96.19
2022-10-30T07:46:31.243Z,96.19
2022-10-30T07:47:23.721Z,96.19
2022-10-30T07:48:32.396Z,96.09
2022-10-30T07:49:23.704Z,96.09
2022-10-30T07:50:31.194Z,96.09
2022-10-30T07:51:23.676Z,96.19
2022-10-30T07:52:31.173Z,96.30
2022-10-30T07:53:32.352Z,96.30
2022-10-30T07:54:31.149Z,96.30
2022-10-30T07:55:31.124Z,96.30
2022-10-30T07:56:31.121Z,96.30
2022-10-30T07:57:32.297Z,96.30
2022-10-30T07:58:31.096Z,96.30
2022-10-30T07:59:24.603Z,96.30
2022-10-30T08:00:24.604Z,96.39
2022-10-30T08:02:33.897Z,96.35
2022-10-30T08:03:35.813Z,96.25
2022-10-30T08:04:33.846Z,96.25
2022-10-30T08:05:33.763Z,96.25
2022-10-30T08:06:33.735Z,96.35
2022-10-30T08:07:33.734Z,96.35
2022-10-30T08:08:35.773Z,96.35
2022-10-30T08:09:34.704Z,96.35
2022-10-30T08:10:33.795Z,96.35
2022-10-30T08:11:33.668Z,96.25
2022-10-30T08:12:33.665Z,96.25
2022-10-30T08:13:34.736Z,96.10
2022-10-30T08:14:33.713Z,96.10
2022-10-30T08:15:33.715Z,95.90
2022-10-30T08:16:33.619Z,95.90
2022-10-30T08:17:33.662Z,95.90
2022-10-30T08:18:33.636Z,96.00
2022-10-30T08:19:35.633Z,95.90
2022-10-30T08:20:34.646Z,95.95
2022-10-30T08:21:33.527Z,96.06
2022-10-30T08:22:33.589Z,96.15
2022-10-30T08:23:33.568Z,96.06
2022-10-30T08:24:33.658Z,95.91
2022-10-30T08:25:33.597Z,95.70
2022-10-30T08:26:33.487Z,95.40
2022-10-30T08:27:33.496Z,95.05
2022-10-30T08:28:33.468Z,94.74
2022-10-30T08:29:33.436Z,94.50
2022-10-30T08:30:33.448Z,94.29
2022-10-30T08:31:54.587Z,94.09
2022-10-30T08:32:33.470Z,93.99
2022-10-30T08:33:33.407Z,93.95
2022-10-30T08:34:33.576Z,93.74
2022-10-30T08:36:46.772Z,93.64
2022-10-30T08:37:44.594Z,93.40
2022-10-30T08:38:44.578Z,93.40
2022-10-30T08:39:43.562Z,93.09
2022-10-30T08:40:43.541Z,92.89
2022-10-30T08:41:43.519Z,92.84
2022-10-30T08:42:43.520Z,92.54
2022-10-30T08:43:43.588Z,92.05
2022-10-30T08:44:43.510Z,90.58
2022-10-30T08:45:43.511Z,89.24
2022-10-30T08:46:44.647Z,87.34
2022-10-30T08:47:43.451Z,85.44
2022-10-30T08:48:43.537Z,83.20
2022-10-30T08:49:43.415Z,81.01
2022-10-30T08:50:43.402Z,79.22
2022-10-30T08:51:43.482Z,77.94
2022-10-30T08:52:43.514Z,77.09
2022-10-30T08:53:43.465Z,75.89
2022-10-30T08:54:43.371Z,74.85
2022-10-30T08:55:43.372Z,74.74
2022-10-30T08:56:43.385Z,75.09
2022-10-30T08:57:43.563Z,74.85
2022-10-30T08:58:43.404Z,74.21
2022-10-30T08:59:43.305Z,72.94
2022-10-30T09:00:43.349Z,71.96
2022-10-30T09:01:43.404Z,70.69
2022-10-30T09:02:43.326Z,69.06
2022-10-30T09:03:43.256Z,67.43
2022-10-30T09:05:53.460Z,66.23
2022-10-30T09:06:53.513Z,65.43
2022-10-30T09:07:53.435Z,65.10
2022-10-30T09:08:53.426Z,64.70
2022-10-30T09:09:53.405Z,64.50
2022-10-30T09:10:53.393Z,64.93
2022-10-30T09:11:53.428Z,66.26
2022-10-30T09:12:53.585Z,66.69
2022-10-30T09:13:53.441Z,66.59
2022-10-30T09:14:53.511Z,66.89
2022-10-30T09:15:53.367Z,66.46
2022-10-30T09:16:53.380Z,66.33
2022-10-30T09:17:53.308Z,65.37
2022-10-30T09:18:53.327Z,63.34
2022-10-30T09:19:53.270Z,62.48
2022-10-30T09:20:53.579Z,61.96
2022-10-30T09:21:53.289Z,60.33
2022-10-30T09:22:53.354Z,60.93
2022-10-30T09:23:53.308Z,61.50
2022-10-30T09:24:53.321Z,61.30
2022-10-30T09:25:53.190Z,60.97
2022-10-30T09:26:53.241Z,59.58
2022-10-30T09:27:56.480Z,59.28
2022-10-30T09:28:55.220Z,60.90
2022-10-30T09:29:54.179Z,60.57
2022-10-30T09:30:53.161Z,61.07
2022-10-30T09:31:53.126Z,61.47
2022-10-30T09:32:55.016Z,61.00
2022-10-30T09:33:54.105Z,61.69
2022-10-30T09:34:54.139Z,61.20
2022-10-30T09:35:53.092Z,62.29
2022-10-30T09:36:53.054Z,61.50
2022-10-30T09:37:53.165Z,61.07
2022-10-30T09:38:53.113Z,61.67
2022-10-30T09:39:53.016Z,60.05
2022-10-30T09:40:53.005Z,60.84
2022-10-30T09:41:53.011Z,60.55
2022-10-30T09:42:53.055Z,61.69
2022-10-30T09:43:52.957Z,61.40
2022-10-30T09:45:15.116Z,62.23
2022-10-30T09:45:53.957Z,62.52
2022-10-30T09:46:52.927Z,63.98
2022-10-30T10:03:53.669Z,59.42
2022-10-30T10:04:53.599Z,58.07
2022-10-30T10:05:53.611Z,56.93
2022-10-30T10:06:53.498Z,57.03
2022-10-30T10:07:53.542Z,56.60
2022-10-30T10:08:54.540Z,55.58
2022-10-30T10:09:53.546Z,54.96
2022-10-30T10:10:53.534Z,54.86
2022-10-30T10:11:53.552Z,54.35
2022-10-30T10:13:00.127Z,53.95
2022-10-30T10:13:55.504Z,54.02
2022-10-30T10:14:53.393Z,53.92
2022-10-30T10:15:53.485Z,53.11
2022-10-30T10:16:53.473Z,53.40
2022-10-30T10:17:53.417Z,55.15
2022-10-30T10:18:53.384Z,53.08
2022-10-30T10:19:53.400Z,53.77
2022-10-30T10:20:53.415Z,52.95
2022-10-30T10:21:54.347Z,52.34
2022-10-30T10:22:57.032Z,52.80
2022-10-30T10:23:53.362Z,51.59
2022-10-30T10:24:53.357Z,49.79
2022-10-30T10:25:53.253Z,49.18
2022-10-30T10:26:54.287Z,48.83
2022-10-30T10:27:54.307Z,48.61
2022-10-30T10:28:53.264Z,47.83
2022-10-30T10:29:53.328Z,47.92
2022-10-30T10:30:53.210Z,47.92
2022-10-30T10:31:53.306Z,47.41
2022-10-30T10:32:53.206Z,47.51
2022-10-30T10:33:55.235Z,47.09
2022-10-30T10:34:53.147Z,47.39
2022-10-30T10:35:53.129Z,47.00
2022-10-30T10:36:53.204Z,46.70
2022-10-30T10:37:53.101Z,46.41
2022-10-30T10:38:53.116Z,46.41
2022-10-30T10:39:53.142Z,46.70
2022-10-30T10:40:53.178Z,46.31
2022-10-30T10:41:53.856Z,46.62
2022-10-30T10:42:53.091Z,47.91
2022-10-30T10:43:53.029Z,47.41
2022-10-30T10:44:53.122Z,47.12
2022-10-30T10:45:53.013Z,46.84
2022-10-30T10:46:52.985Z,46.92
2022-10-30T10:47:53.041Z,47.29
2022-10-30T10:48:52.974Z,46.80
2022-10-30T10:49:53.009Z,46.78
2022-10-30T10:50:54.031Z,46.48
2022-10-30T10:51:53.003Z,45.97
2022-10-30T10:52:52.917Z,45.87
2022-10-30T10:54:00.411Z,45.55
2022-10-30T10:55:00.391Z,45.06
2022-10-30T10:56:00.378Z,45.43
2022-10-30T10:57:00.372Z,44.77
2022-10-30T10:58:02.562Z,45.14
2022-10-30T10:59:00.339Z,44.84
2022-10-30T11:00:00.328Z,45.75
2022-10-30T11:01:00.415Z,45.67
2022-10-30T11:01:52.974Z,46.58
2022-10-30T11:02:58.520Z,47.17
2022-10-30T11:04:15.858Z,46.85
2022-10-30T11:04:52.756Z,46.63
2022-10-30T11:07:02.972Z,45.24
2022-10-30T11:08:10.659Z,44.53
2022-10-30T11:09:03.044Z,43.72
2022-10-30T11:10:02.953Z,44.48
2022-10-30T11:11:04.007Z,43.41
2022-10-30T11:12:03.074Z,44.09
2022-10-30T11:13:02.911Z,43.51
2022-10-30T11:14:02.987Z,44.38
2022-10-30T11:15:02.895Z,44.78
2022-10-30T11:16:02.894Z,44.48
2022-10-30T11:17:02.945Z,43.02
2022-10-30T11:18:03.021Z,43.31
2022-10-30T11:19:02.939Z,44.41
2022-10-30T11:20:02.838Z,43.92
2022-10-30T11:21:02.865Z,43.92
2022-10-30T11:22:04.236Z,43.80
2022-10-30T11:23:02.887Z,43.51
2022-10-30T11:24:03.919Z,43.12
2022-10-30T11:25:02.782Z,42.99
2022-10-30T11:26:02.771Z,43.37
2022-10-30T11:27:02.781Z,42.97
2022-10-30T11:28:02.827Z,43.17
2022-10-30T11:29:02.797Z,44.05
2022-10-30T11:30:02.790Z,43.48
2022-10-30T11:31:02.827Z,42.99
2022-10-30T11:32:02.714Z,42.90
2022-10-30T11:33:02.781Z,44.66
2022-10-30T11:34:02.748Z,43.98
2022-10-30T11:35:03.646Z,43.38
2022-10-30T11:36:02.654Z,43.80
2022-10-30T11:37:02.646Z,43.51
2022-10-30T11:38:02.678Z,45.17
2022-10-30T11:39:02.651Z,45.47
2022-10-30T11:40:02.600Z,44.48
2022-10-30T11:41:02.572Z,44.19
2022-10-30T11:42:02.565Z,44.09
2022-10-30T11:43:02.910Z,44.66
2022-10-30T11:44:02.546Z,43.76
2022-10-30T11:45:02.537Z,43.44
2022-10-30T11:46:02.507Z,42.76
2022-10-30T11:47:02.538Z,42.64
2022-10-30T11:48:03.208Z,42.64
2022-10-30T11:49:02.523Z,41.93
2022-10-30T11:50:02.522Z,42.89
2022-10-30T11:51:02.604Z,42.21
2022-10-30T11:52:02.447Z,41.03
2022-10-30T11:53:02.473Z,42.70
2022-10-30T11:54:02.454Z,43.51
2022-10-30T11:55:02.450Z,43.92
2022-10-30T11:56:02.492Z,44.13
2022-10-30T11:57:02.467Z,44.65
2022-10-30T11:58:02.726Z,44.45
2022-10-30T11:59:02.383Z,44.23
2022-10-30T12:00:05.534Z,44.82
2022-10-30T12:01:02.391Z,44.45
2022-10-30T12:02:02.578Z,44.35
2022-10-30T12:03:02.661Z,44.13
2022-10-30T12:04:02.410Z,43.72
2022-10-30T12:05:02.360Z,43.41
2022-10-30T12:06:02.326Z,43.17
2022-10-30T12:07:02.332Z,43.13
2022-10-30T12:08:02.372Z,40.94
2022-10-30T12:09:02.344Z,41.21
2022-10-30T12:10:02.245Z,40.06
2022-10-30T12:11:02.254Z,40.14
2022-10-30T12:12:06.645Z,41.21
2022-10-30T12:13:02.241Z,41.09
2022-10-30T12:14:02.186Z,40.70
2022-10-30T12:15:02.192Z,40.80
2022-10-30T12:16:02.185Z,40.11
2022-10-30T12:17:02.188Z,40.50
2022-10-30T12:18:02.266Z,40.99
2022-10-30T12:19:02.121Z,40.68
2022-10-30T12:20:02.217Z,40.19
2022-10-30T12:21:02.131Z,39.98
2022-10-30T12:22:03.028Z,39.39
2022-10-30T12:23:02.335Z,40.58
2022-10-30T12:24:02.147Z,39.62
2022-10-30T12:25:02.056Z,39.55
2022-10-30T12:26:02.065Z,40.53
2022-10-30T12:27:03.091Z,39.84
2022-10-30T12:28:02.110Z,39.65
2022-10-30T12:29:02.070Z,40.43
2022-10-30T12:30:08.395Z,39.76
2022-10-30T12:31:03.012Z,40.19
2022-10-30T12:32:01.983Z,42.32
2022-10-30T12:33:02.230Z,41.82
2022-10-30T12:34:02.065Z,40.31
2022-10-30T12:35:02.028Z,41.77
2022-10-30T12:36:02.039Z,40.01
2022-10-30T12:37:01.925Z,39.31
2022-10-30T12:38:02.308Z,40.11
2022-10-30T12:39:01.899Z,40.50
2022-10-30T12:40:01.875Z,39.28
2022-10-30T12:41:01.866Z,40.29
2022-10-30T12:42:01.888Z,41.70
2022-10-30T12:43:01.849Z,41.31
2022-10-30T12:44:01.879Z,41.99
2022-10-30T12:45:01.884Z,41.49
2022-10-30T12:46:01.822Z,41.88
2022-10-30T12:47:01.896Z,43.37
2022-10-30T12:48:02.194Z,41.19
2022-10-30T12:49:01.824Z,41.11
2022-10-30T12:50:01.915Z,41.70
2022-10-30T12:51:01.821Z,42.29
2022-10-30T12:52:01.836Z,42.48
2022-10-30T12:53:02.104Z,43.34
2022-10-30T12:54:01.743Z,44.85
2022-10-30T12:55:01.741Z,45.17
2022-10-30T12:56:03.722Z,45.14
2022-10-30T12:57:01.685Z,45.36
2022-10-30T12:58:01.718Z,47.96
2022-10-30T12:59:01.663Z,48.57
2022-10-30T13:00:01.687Z,50.90
2022-10-30T13:01:03.786Z,49.75
2022-10-30T13:02:01.817Z,49.08
2022-10-30T13:03:02.178Z,48.93
2022-10-30T13:04:01.713Z,51.82
2022-10-30T13:05:01.605Z,52.04
2022-10-30T13:06:01.619Z,53.55
2022-10-30T13:07:01.622Z,53.47
2022-10-30T13:08:01.830Z,52.12
2022-10-30T13:09:01.648Z,53.82
2022-10-30T13:10:01.538Z,53.16
2022-10-30T13:11:01.542Z,54.30
2022-10-30T13:12:01.548Z,55.71
2022-10-30T13:13:02.521Z,55.94
2022-10-30T13:14:02.489Z,57.42
2022-10-30T13:15:01.576Z,59.63
2022-10-30T13:16:01.481Z,60.46
2022-10-30T13:17:01.491Z,60.09
2022-10-30T13:18:01.837Z,62.50
2022-10-30T13:19:01.422Z,62.23
2022-10-30T13:20:01.501Z,63.06
2022-10-30T13:21:01.408Z,62.37
2022-10-30T13:22:01.469Z,64.28
2022-10-30T13:23:01.803Z,64.18
2022-10-30T13:24:01.432Z,64.88
2022-10-30T13:25:04.069Z,65.01
2022-10-30T13:26:01.357Z,65.81
2022-10-30T13:27:01.343Z,65.51
2022-10-30T13:28:01.415Z,66.64
2022-10-30T13:29:01.367Z,68.33
2022-10-30T13:30:01.273Z,67.13
2022-10-30T13:31:01.278Z,65.94
2022-10-30T13:32:02.313Z,66.34